createdAt,value
2022-08-31T00:00:01.114Z,23.02
2022-08-31T00:01:01.131Z,22.97
2022-08-31T00:02:01.161Z,22.88
2022-08-31T00:03:01.140Z,22.88
2022-08-31T00:04:01.116Z,22.76
2022-08-31T00:05:01.207Z,22.70
2022-08-31T00:06:01.113Z,22.68
2022-08-31T00:07:01.109Z,22.73
2022-08-31T00:08:01.107Z,22.68
2022-08-31T00:09:01.104Z,22.57
2022-08-31T00:10:01.106Z,22.61
2022-08-31T00:11:01.106Z,22.64
2022-08-31T00:12:01.107Z,22.60
2022-08-31T00:13:01.103Z,22.61
2022-08-31T00:14:01.121Z,22.62
2022-08-31T00:15:01.093Z,22.52
2022-08-31T00:16:01.134Z,22.54
2022-08-31T00:17:01.093Z,22.61
2022-08-31T00:18:01.088Z,22.55
2022-08-31T00:19:01.099Z,22.62
2022-08-31T00:20:01.096Z,22.65
2022-08-31T00:21:01.089Z,22.61
2022-08-31T00:22:01.083Z,22.70
2022-08-31T00:23:01.079Z,22.73
2022-08-31T00:24:01.084Z,22.73
2022-08-31T00:25:01.074Z,22.72
2022-08-31T00:26:01.084Z,22.85
2022-08-31T00:27:01.070Z,22.85
2022-08-31T00:28:01.075Z,22.70
2022-08-31T00:29:01.067Z,22.75
2022-08-31T00:30:01.077Z,22.79
2022-08-31T00:31:01.078Z,22.73
2022-08-31T00:32:01.141Z,22.77
2022-08-31T00:33:01.066Z,22.77
2022-08-31T00:34:01.076Z,22.79
2022-08-31T00:35:01.067Z,22.72
2022-08-31T00:36:01.065Z,22.62
2022-08-31T00:37:01.068Z,22.68
2022-08-31T00:38:01.058Z,22.64
2022-08-31T00:39:01.061Z,22.57
2022-08-31T00:40:01.159Z,22.61
2022-08-31T00:41:01.052Z,22.62
2022-08-31T00:42:01.071Z,22.62
2022-08-31T00:43:01.064Z,22.58
2022-08-31T00:44:01.061Z,22.64
2022-08-31T00:45:01.053Z,22.60
2022-08-31T00:46:01.085Z,22.55
2022-08-31T00:47:01.045Z,22.54
2022-08-31T00:48:01.052Z,22.54
2022-08-31T00:49:01.042Z,22.51
2022-08-31T00:50:01.041Z,22.43
2022-08-31T00:51:01.050Z,22.43
2022-08-31T00:52:01.052Z,22.45
2022-08-31T00:53:01.044Z,22.35
2022-08-31T00:54:01.031Z,22.36
2022-08-31T00:55:01.032Z,22.36
2022-08-31T00:56:01.040Z,22.28
2022-08-31T00:57:01.025Z,22.27
2022-08-31T00:58:01.038Z,22.28
2022-08-31T00:59:01.025Z,22.24
2022-08-31T01:00:01.028Z,22.20
2022-08-31T01:01:01.162Z,22.25
2022-08-31T01:02:01.070Z,22.24
2022-08-31T01:03:01.028Z,22.15
2022-08-31T01:04:01.017Z,22.22
2022-08-31T01:06:35.736Z,22.21
2022-08-31T01:07:35.734Z,22.14
2022-08-31T01:08:35.725Z,22.12
2022-08-31T01:09:35.720Z,22.05
2022-08-31T01:10:35.721Z,21.98
2022-08-31T01:11:35.719Z,22.02
2022-08-31T01:12:35.733Z,22.05
2022-08-31T01:13:35.788Z,22.02
2022-08-31T01:14:35.721Z,22.00
2022-08-31T01:15:35.725Z,21.98
2022-08-31T01:16:35.767Z,22.03
2022-08-31T01:17:35.703Z,21.99
2022-08-31T01:18:35.700Z,21.98
2022-08-31T01:19:35.703Z,21.96
2022-08-31T01:20:35.709Z,21.92
2022-08-31T01:21:35.709Z,22.02
2022-08-31T01:22:35.690Z,22.02
2022-08-31T01:23:35.690Z,22.02
2022-08-31T01:24:35.685Z,22.02
2022-08-31T01:25:35.690Z,22.02
2022-08-31T01:26:35.693Z,21.99
2022-08-31T01:27:35.695Z,22.09
2022-08-31T01:28:35.682Z,22.06
2022-08-31T01:29:35.673Z,22.12
2022-08-31T01:30:35.687Z,22.18
2022-08-31T01:31:35.708Z,22.14
2022-08-31T01:32:35.675Z,22.17
2022-08-31T01:33:35.677Z,22.07
2022-08-31T01:34:35.662Z,22.05
2022-08-31T01:35:35.663Z,22.02
2022-08-31T01:36:35.668Z,22.12
2022-08-31T01:37:36.523Z,22.00
2022-08-31T01:38:35.657Z,22.02
2022-08-31T01:39:35.666Z,22.00
2022-08-31T01:40:35.690Z,22.03
2022-08-31T01:41:35.655Z,21.92
2022-08-31T01:42:35.659Z,21.96
2022-08-31T01:43:35.651Z,21.99
2022-08-31T01:44:35.657Z,21.94
2022-08-31T01:45:35.647Z,22.02
2022-08-31T01:46:35.694Z,21.96
2022-08-31T01:47:35.639Z,21.98
2022-08-31T01:48:35.639Z,21.98
2022-08-31T01:49:35.645Z,22.00
2022-08-31T01:50:35.635Z,21.92
2022-08-31T01:51:35.635Z,22.02
2022-08-31T01:52:35.634Z,22.00
2022-08-31T01:53:35.636Z,21.98
2022-08-31T01:54:35.631Z,21.99
2022-08-31T01:55:35.630Z,22.00
2022-08-31T01:56:35.617Z,21.98
2022-08-31T01:57:35.621Z,22.00
2022-08-31T01:58:35.614Z,22.00
2022-08-31T01:59:35.621Z,22.02
2022-08-31T02:00:35.624Z,21.98
2022-08-31T02:01:35.642Z,21.90
2022-08-31T02:02:35.711Z,21.98
2022-08-31T02:03:35.616Z,21.96
2022-08-31T02:04:35.603Z,21.91
2022-08-31T02:05:35.609Z,21.90
2022-08-31T02:06:35.632Z,21.90
2022-08-31T02:07:35.608Z,21.92
2022-08-31T02:08:35.598Z,21.88
2022-08-31T02:09:35.592Z,21.91
2022-08-31T02:10:35.589Z,21.94
2022-08-31T02:11:35.597Z,21.94
2022-08-31T02:12:35.593Z,21.92
2022-08-31T02:13:35.582Z,21.84
2022-08-31T02:14:35.620Z,21.92
2022-08-31T02:15:35.579Z,21.96
2022-08-31T02:16:35.679Z,21.90
2022-08-31T02:17:35.588Z,21.88
2022-08-31T02:18:35.584Z,21.92
2022-08-31T02:19:35.587Z,21.92
2022-08-31T02:20:35.566Z,21.86
2022-08-31T02:21:36.874Z,21.91
2022-08-31T02:22:35.565Z,21.74
2022-08-31T02:23:35.569Z,21.84
2022-08-31T02:24:35.563Z,21.80
2022-08-31T02:25:35.564Z,21.79
2022-08-31T02:26:35.556Z,21.80
2022-08-31T02:27:35.567Z,21.77
2022-08-31T02:28:35.557Z,21.77
2022-08-31T02:29:35.557Z,21.79
2022-08-31T02:30:35.555Z,21.77
2022-08-31T02:31:35.647Z,21.74
2022-08-31T02:32:35.543Z,21.74
2022-08-31T02:33:35.547Z,21.69
2022-08-31T02:34:35.557Z,21.71
2022-08-31T02:35:35.552Z,21.71
2022-08-31T02:36:35.953Z,21.72
2022-08-31T02:37:35.604Z,21.69
2022-08-31T02:38:35.531Z,21.74
2022-08-31T02:39:35.534Z,21.72
2022-08-31T02:40:35.623Z,21.74
2022-08-31T02:41:35.530Z,21.79
2022-08-31T02:42:40.855Z,21.77
2022-08-31T02:43:35.541Z,21.74
2022-08-31T02:44:35.524Z,21.75
2022-08-31T02:45:35.513Z,21.77
2022-08-31T02:46:35.600Z,21.80
2022-08-31T02:47:35.520Z,21.77
2022-08-31T02:48:35.522Z,21.79
2022-08-31T02:49:35.533Z,21.75
2022-08-31T02:50:35.515Z,21.77
2022-08-31T02:51:35.503Z,21.90
2022-08-31T02:52:35.499Z,21.79
2022-08-31T02:53:35.507Z,21.79
2022-08-31T02:54:35.496Z,21.84
2022-08-31T02:55:35.499Z,21.83
2022-08-31T02:56:35.493Z,21.80
2022-08-31T02:57:35.488Z,21.74
2022-08-31T02:58:35.493Z,21.83
2022-08-31T02:59:35.485Z,21.80
2022-08-31T03:00:35.483Z,21.77
2022-08-31T03:01:35.561Z,21.77
2022-08-31T03:02:35.580Z,21.82
2022-08-31T03:03:35.496Z,21.83
2022-08-31T03:04:35.476Z,21.80
2022-08-31T03:05:35.484Z,21.75
2022-08-31T03:06:35.475Z,21.80
2022-08-31T03:07:35.476Z,21.71
2022-08-31T03:08:35.474Z,21.69
2022-08-31T03:09:35.478Z,21.68
2022-08-31T03:10:35.465Z,21.72
2022-08-31T03:11:35.473Z,21.68
2022-08-31T03:12:35.463Z,21.68
2022-08-31T03:13:35.458Z,21.68
2022-08-31T03:14:35.471Z,21.58
2022-08-31T03:15:35.494Z,21.65
2022-08-31T03:16:35.456Z,21.59
2022-08-31T03:17:35.455Z,21.53
2022-08-31T03:18:35.455Z,21.52
2022-08-31T03:19:35.458Z,21.54
2022-08-31T03:20:35.438Z,21.53
2022-08-31T03:21:35.438Z,21.50
2022-08-31T03:22:35.455Z,21.40
2022-08-31T03:23:35.431Z,21.42
2022-08-31T03:24:35.434Z,21.38
2022-08-31T03:25:35.431Z,21.43
2022-08-31T03:26:35.422Z,21.37
2022-08-31T03:27:35.420Z,21.43
2022-08-31T03:28:35.421Z,21.35
2022-08-31T03:29:35.422Z,21.35
2022-08-31T03:30:35.426Z,21.27
2022-08-31T03:31:35.478Z,21.29
2022-08-31T03:32:35.406Z,21.28
2022-08-31T03:33:35.405Z,21.25
2022-08-31T03:34:35.411Z,21.12
2022-08-31T03:35:35.409Z,21.10
2022-08-31T03:36:35.405Z,21.06
2022-08-31T03:37:35.410Z,21.13
2022-08-31T03:38:35.391Z,21.16
2022-08-31T03:39:35.402Z,21.22
2022-08-31T03:40:35.504Z,21.27
2022-08-31T03:41:35.396Z,21.32
2022-08-31T03:42:35.411Z,21.24
2022-08-31T03:43:35.393Z,21.28
2022-08-31T03:44:35.406Z,21.31
2022-08-31T03:45:35.382Z,21.31
2022-08-31T03:46:35.480Z,21.35
2022-08-31T03:47:35.379Z,21.38
2022-08-31T03:48:35.366Z,21.35
2022-08-31T03:49:35.367Z,21.40
2022-08-31T03:50:35.373Z,21.32
2022-08-31T03:51:35.372Z,21.35
2022-08-31T03:52:35.366Z,21.34
2022-08-31T03:53:35.364Z,21.28
2022-08-31T03:54:35.364Z,21.22
2022-08-31T03:55:35.352Z,21.24
2022-08-31T03:56:35.364Z,21.25
2022-08-31T03:57:35.360Z,21.27
2022-08-31T03:58:35.343Z,21.29
2022-08-31T03:59:35.350Z,21.22
2022-08-31T04:00:35.350Z,21.27
2022-08-31T04:01:35.397Z,21.22
2022-08-31T04:02:37.622Z,21.32
2022-08-31T04:03:35.354Z,21.25
2022-08-31T04:04:35.339Z,21.28
2022-08-31T04:05:35.337Z,21.27
2022-08-31T04:06:35.329Z,21.27
2022-08-31T04:07:42.335Z,21.29
2022-08-31T04:08:35.337Z,21.32
2022-08-31T04:09:35.323Z,21.34
2022-08-31T04:10:35.337Z,21.37
2022-08-31T04:11:44.796Z,21.40
2022-08-31T04:12:35.319Z,21.38
2022-08-31T04:13:35.317Z,21.44
2022-08-31T04:14:35.316Z,21.47
2022-08-31T04:15:35.368Z,21.46
2022-08-31T04:16:35.312Z,21.44
2022-08-31T04:17:35.310Z,21.38
2022-08-31T04:18:35.308Z,21.49
2022-08-31T04:19:35.300Z,21.42
2022-08-31T04:20:35.301Z,21.40
2022-08-31T04:21:35.302Z,21.43
2022-08-31T04:22:35.293Z,21.49
2022-08-31T04:23:35.300Z,21.49
2022-08-31T04:24:35.289Z,21.59
2022-08-31T04:25:35.285Z,21.54
2022-08-31T04:26:35.308Z,21.52
2022-08-31T04:27:35.298Z,21.61
2022-08-31T04:28:35.279Z,21.67
2022-08-31T04:29:35.274Z,21.71
2022-08-31T04:30:35.285Z,21.79
2022-08-31T04:31:35.317Z,21.91
2022-08-31T04:32:35.285Z,21.84
2022-08-31T04:33:35.295Z,21.91
2022-08-31T04:34:35.276Z,21.94
2022-08-31T04:35:35.277Z,21.98
2022-08-31T04:36:35.274Z,21.94
2022-08-31T04:37:35.274Z,21.90
2022-08-31T04:38:35.277Z,21.99
2022-08-31T04:39:35.271Z,21.91
2022-08-31T04:40:35.312Z,21.86
2022-08-31T04:41:35.267Z,21.99
2022-08-31T04:42:35.256Z,21.98
2022-08-31T04:43:35.251Z,22.03
2022-08-31T04:44:35.278Z,21.94
2022-08-31T04:45:35.291Z,22.00
2022-08-31T04:46:35.287Z,21.98
2022-08-31T04:47:35.246Z,22.02
2022-08-31T04:48:35.249Z,22.02
2022-08-31T04:49:35.239Z,21.98
2022-08-31T04:50:38.250Z,21.96
2022-08-31T04:51:35.249Z,22.00
2022-08-31T04:52:35.233Z,21.94
2022-08-31T04:53:35.235Z,21.88
2022-08-31T04:54:35.232Z,21.91
2022-08-31T04:55:35.253Z,21.80
2022-08-31T04:56:35.237Z,21.72
2022-08-31T04:57:35.224Z,21.65
2022-08-31T04:58:35.223Z,21.50
2022-08-31T04:59:35.226Z,21.49
2022-08-31T05:00:35.219Z,21.38
2022-08-31T05:01:42.546Z,21.49
2022-08-31T05:02:35.233Z,21.32
2022-08-31T05:03:35.223Z,21.32
2022-08-31T05:04:35.217Z,21.32
2022-08-31T05:05:35.215Z,21.34
2022-08-31T05:06:35.228Z,21.34
2022-08-31T05:07:35.213Z,21.31
2022-08-31T05:08:35.202Z,21.32
2022-08-31T05:09:35.204Z,21.25
2022-08-31T05:10:35.195Z,21.13
2022-08-31T05:11:35.206Z,21.16
2022-08-31T05:12:35.193Z,21.14
2022-08-31T05:13:35.196Z,21.13
2022-08-31T05:14:35.215Z,21.16
2022-08-31T05:15:35.231Z,21.10
2022-08-31T05:16:35.193Z,21.06
2022-08-31T05:17:35.186Z,21.16
2022-08-31T05:18:35.184Z,21.09
2022-08-31T05:19:39.184Z,21.03
2022-08-31T05:20:35.181Z,20.99
2022-08-31T05:21:35.172Z,20.98
2022-08-31T05:22:35.178Z,20.92
2022-08-31T05:23:35.177Z,20.89
2022-08-31T05:24:35.169Z,20.80
2022-08-31T05:25:35.161Z,20.91
2022-08-31T05:26:35.162Z,20.87
2022-08-31T05:27:35.171Z,20.85
2022-08-31T05:28:35.148Z,20.82
2022-08-31T05:29:35.169Z,20.84
2022-08-31T05:30:35.150Z,20.84
2022-08-31T05:31:35.158Z,20.94
2022-08-31T05:32:35.146Z,20.92
2022-08-31T05:33:35.155Z,20.97
2022-08-31T05:34:35.174Z,20.98
2022-08-31T05:35:35.141Z,20.99
2022-08-31T05:36:35.136Z,20.94
2022-08-31T05:37:35.138Z,20.95
2022-08-31T05:39:21.404Z,21.01
2022-08-31T05:40:21.433Z,20.98
2022-08-31T05:41:21.398Z,21.03
2022-08-31T05:42:21.398Z,20.99
2022-08-31T05:43:21.395Z,20.94
2022-08-31T05:44:21.506Z,21.01
2022-08-31T05:45:21.402Z,20.97
2022-08-31T05:46:21.462Z,20.92
2022-08-31T05:47:21.398Z,20.91
2022-08-31T05:48:21.394Z,20.92
2022-08-31T05:49:21.384Z,20.97
2022-08-31T05:50:21.396Z,20.91
2022-08-31T05:51:21.375Z,20.97
2022-08-31T05:52:25.093Z,20.94
2022-08-31T05:53:21.366Z,20.97
2022-08-31T05:54:21.356Z,20.94
2022-08-31T05:55:21.375Z,20.94
2022-08-31T05:56:21.378Z,21.03
2022-08-31T05:57:25.875Z,20.99
2022-08-31T05:58:21.359Z,20.99
2022-08-31T05:59:21.364Z,21.03
2022-08-31T06:00:21.373Z,21.06
2022-08-31T06:01:21.464Z,21.09
2022-08-31T06:02:21.511Z,21.03
2022-08-31T06:03:21.336Z,21.01
2022-08-31T06:04:21.336Z,20.92
2022-08-31T06:05:21.403Z,20.99
2022-08-31T06:06:21.353Z,20.98
2022-08-31T06:07:21.317Z,20.98
2022-08-31T06:08:21.599Z,20.99
2022-08-31T06:09:21.330Z,21.01
2022-08-31T06:10:21.339Z,21.06
2022-08-31T06:11:21.336Z,21.07
2022-08-31T06:12:21.305Z,21.06
2022-08-31T06:13:21.306Z,21.07
2022-08-31T06:14:21.313Z,21.09
2022-08-31T06:15:21.303Z,21.19
2022-08-31T06:16:21.554Z,21.13
2022-08-31T06:17:21.299Z,21.10
2022-08-31T06:18:21.299Z,21.13
2022-08-31T06:19:21.311Z,21.17
2022-08-31T06:20:21.297Z,21.14
2022-08-31T06:21:21.290Z,21.24
2022-08-31T06:22:21.284Z,21.19
2022-08-31T06:23:21.288Z,21.22
2022-08-31T06:24:21.279Z,21.14
2022-08-31T06:25:21.281Z,21.19
2022-08-31T06:26:21.281Z,21.22
2022-08-31T06:27:21.277Z,21.21
2022-08-31T06:28:21.273Z,21.17
2022-08-31T06:29:21.284Z,21.19
2022-08-31T06:30:21.269Z,21.24
2022-08-31T06:31:21.356Z,21.19
2022-08-31T06:32:21.292Z,21.25
2022-08-31T06:33:21.265Z,21.25
2022-08-31T06:34:21.270Z,21.22
2022-08-31T06:35:21.272Z,21.29
2022-08-31T06:36:21.248Z,21.22
2022-08-31T06:37:21.253Z,21.21
2022-08-31T06:38:21.250Z,21.27
2022-08-31T06:39:21.239Z,21.28
2022-08-31T06:40:21.266Z,21.32
2022-08-31T06:41:21.242Z,21.35
2022-08-31T06:42:21.235Z,21.29
2022-08-31T06:43:21.243Z,21.29
2022-08-31T06:44:21.238Z,21.32
2022-08-31T06:45:21.437Z,21.37
2022-08-31T06:46:21.538Z,21.37
2022-08-31T06:47:24.129Z,21.40
2022-08-31T06:48:21.228Z,21.42
2022-08-31T06:49:21.481Z,21.46
2022-08-31T06:50:21.428Z,21.50
2022-08-31T06:51:21.461Z,21.62
2022-08-31T06:52:21.219Z,21.61
2022-08-31T06:53:21.223Z,21.67
2022-08-31T06:54:30.111Z,21.65
2022-08-31T06:55:21.437Z,21.69
2022-08-31T06:56:21.367Z,21.86
2022-08-31T06:57:21.409Z,21.79
2022-08-31T06:58:21.444Z,21.84
2022-08-31T06:59:23.388Z,21.94
2022-08-31T07:00:21.207Z,21.86
2022-08-31T07:01:36.026Z,21.96
2022-08-31T07:02:21.498Z,21.94
2022-08-31T07:03:21.206Z,21.96
2022-08-31T07:04:24.029Z,21.96
2022-08-31T07:05:24.451Z,21.98
2022-08-31T07:06:21.392Z,22.05
2022-08-31T07:07:21.400Z,22.17
2022-08-31T07:08:21.445Z,22.18
2022-08-31T07:09:21.434Z,22.21
2022-08-31T07:10:21.424Z,22.18
2022-08-31T07:11:21.411Z,22.27
2022-08-31T07:12:22.241Z,22.21
2022-08-31T07:13:21.429Z,22.21
2022-08-31T07:14:21.384Z,22.25
2022-08-31T07:15:21.177Z,22.31
2022-08-31T07:16:21.508Z,22.33
2022-08-31T07:17:21.190Z,22.31
2022-08-31T07:18:21.432Z,22.39
2022-08-31T07:19:21.393Z,22.40
2022-08-31T07:20:21.186Z,22.47
2022-08-31T07:21:21.206Z,22.46
2022-08-31T07:22:21.188Z,22.39
2022-08-31T07:23:21.180Z,22.51
2022-08-31T07:24:21.183Z,22.52
2022-08-31T07:25:21.177Z,22.57
2022-08-31T07:26:21.177Z,22.55
2022-08-31T07:27:21.168Z,22.55
2022-08-31T07:28:21.197Z,22.58
2022-08-31T07:29:21.373Z,22.60
2022-08-31T07:30:21.176Z,22.58
2022-08-31T07:31:21.282Z,22.62
2022-08-31T07:32:21.186Z,22.70
2022-08-31T07:33:21.283Z,22.61
2022-08-31T07:34:21.175Z,22.68
2022-08-31T07:35:21.173Z,22.70
2022-08-31T07:36:21.180Z,22.67
2022-08-31T07:37:21.177Z,22.75
2022-08-31T07:38:21.172Z,22.72
2022-08-31T07:40:41.211Z,22.85
2022-08-31T07:41:39.664Z,22.80
2022-08-31T07:42:39.661Z,22.86
2022-08-31T07:43:39.656Z,22.91
2022-08-31T07:44:39.651Z,22.88
2022-08-31T07:45:39.741Z,22.95
2022-08-31T07:46:39.651Z,22.91
2022-08-31T07:47:39.664Z,22.97
2022-08-31T07:48:39.660Z,22.86
2022-08-31T07:49:39.659Z,23.00
2022-08-31T07:50:39.680Z,22.97
2022-08-31T07:51:39.655Z,22.98
2022-08-31T07:52:39.654Z,23.02
2022-08-31T07:53:39.660Z,23.01
2022-08-31T07:54:39.668Z,23.04
2022-08-31T07:55:39.663Z,23.02
2022-08-31T07:56:39.655Z,23.10
2022-08-31T07:57:39.661Z,23.10
2022-08-31T07:58:39.650Z,23.01
2022-08-31T07:59:39.654Z,23.05
2022-08-31T08:00:39.706Z,23.09
2022-08-31T08:01:39.678Z,23.10
2022-08-31T08:02:39.736Z,23.15
2022-08-31T08:03:39.685Z,23.09
2022-08-31T08:04:39.658Z,23.13
2022-08-31T08:05:40.711Z,23.15
2022-08-31T08:06:39.654Z,23.17
2022-08-31T08:07:39.672Z,23.17
2022-08-31T08:08:39.664Z,23.17
2022-08-31T08:09:39.651Z,23.17
2022-08-31T08:10:39.678Z,23.16
2022-08-31T08:11:39.689Z,23.19
2022-08-31T08:12:39.662Z,23.16
2022-08-31T08:13:39.658Z,23.22
2022-08-31T08:14:39.659Z,23.23
2022-08-31T08:15:40.505Z,23.25
2022-08-31T08:16:39.740Z,23.31
2022-08-31T08:17:39.656Z,23.17
2022-08-31T08:18:39.652Z,23.17
2022-08-31T08:19:39.654Z,23.15
2022-08-31T08:20:39.659Z,23.20
2022-08-31T08:21:39.658Z,23.22
2022-08-31T08:22:51.723Z,23.20
2022-08-31T08:23:39.659Z,23.17
2022-08-31T08:24:39.752Z,23.31
2022-08-31T08:25:39.672Z,23.27
2022-08-31T08:26:39.655Z,23.19
2022-08-31T08:27:39.653Z,23.23
2022-08-31T08:28:41.081Z,23.23
2022-08-31T08:29:39.664Z,23.23
2022-08-31T08:30:39.654Z,23.25
2022-08-31T08:31:39.690Z,23.20
2022-08-31T08:32:39.665Z,23.25
2022-08-31T08:33:39.667Z,23.38
2022-08-31T08:34:39.674Z,23.38
2022-08-31T08:35:39.658Z,23.39
2022-08-31T08:36:39.653Z,23.36
2022-08-31T08:37:57.056Z,23.39
2022-08-31T08:38:39.751Z,23.35
2022-08-31T08:39:39.659Z,23.35
2022-08-31T08:40:39.715Z,23.38
2022-08-31T08:41:39.660Z,23.36
2022-08-31T08:42:39.659Z,23.39
2022-08-31T08:43:39.660Z,23.39
2022-08-31T08:44:39.662Z,23.38
2022-08-31T08:45:39.706Z,23.42
2022-08-31T08:46:39.728Z,23.38
2022-08-31T08:47:39.927Z,23.47
2022-08-31T08:48:39.675Z,23.40
2022-08-31T08:49:39.666Z,23.48
2022-08-31T08:50:39.655Z,23.39
2022-08-31T08:51:39.662Z,23.43
2022-08-31T08:52:39.662Z,23.43
2022-08-31T08:53:39.689Z,23.48
2022-08-31T08:54:39.662Z,23.43
2022-08-31T08:55:39.676Z,23.40
2022-08-31T08:56:39.667Z,23.39
2022-08-31T08:57:39.667Z,23.43
2022-08-31T08:58:39.668Z,23.39
2022-08-31T08:59:39.670Z,23.46
2022-08-31T09:00:39.664Z,23.39
2022-08-31T09:01:39.694Z,23.42
2022-08-31T09:02:39.812Z,23.48
2022-08-31T09:03:39.667Z,23.48
2022-08-31T09:04:39.658Z,23.50
2022-08-31T09:05:39.664Z,23.48
2022-08-31T09:06:45.388Z,23.53
2022-08-31T09:07:39.666Z,23.53
2022-08-31T09:08:39.676Z,23.47
2022-08-31T09:09:39.700Z,23.50
2022-08-31T09:10:39.677Z,23.54
2022-08-31T09:11:39.742Z,23.47
2022-08-31T09:12:43.521Z,23.51
2022-08-31T09:13:39.668Z,23.54
2022-08-31T09:14:39.681Z,23.50
2022-08-31T09:15:39.691Z,23.54
2022-08-31T09:16:39.919Z,23.50
2022-08-31T09:17:39.876Z,23.51
2022-08-31T09:18:39.681Z,23.60
2022-08-31T09:19:39.677Z,23.61
2022-08-31T09:20:39.676Z,23.55
2022-08-31T09:21:39.676Z,23.65
2022-08-31T09:22:39.676Z,23.58
2022-08-31T09:23:39.675Z,23.66
2022-08-31T09:24:39.670Z,23.58
2022-08-31T09:25:39.675Z,23.63
2022-08-31T09:26:39.679Z,23.58
2022-08-31T09:27:39.674Z,23.61
2022-08-31T09:28:39.669Z,23.55
2022-08-31T09:29:39.666Z,23.54
2022-08-31T09:30:39.685Z,23.53
2022-08-31T09:31:39.825Z,23.53
2022-08-31T09:32:39.674Z,23.50
2022-08-31T09:33:39.676Z,23.48
2022-08-31T09:34:39.679Z,23.43
2022-08-31T09:35:39.675Z,23.36
2022-08-31T09:36:39.676Z,23.38
2022-08-31T09:37:42.308Z,23.39
2022-08-31T09:38:39.680Z,23.33
2022-08-31T09:39:39.684Z,23.25
2022-08-31T09:40:39.707Z,23.22
2022-08-31T09:41:39.680Z,23.22
2022-08-31T09:42:39.674Z,23.31
2022-08-31T09:43:41.108Z,23.28
2022-08-31T09:44:39.668Z,23.22
2022-08-31T09:45:42.400Z,23.19
2022-08-31T09:46:39.674Z,23.25
2022-08-31T09:47:39.665Z,23.15
2022-08-31T09:48:39.669Z,23.10
2022-08-31T09:49:39.666Z,23.20
2022-08-31T09:50:39.672Z,23.10
2022-08-31T09:51:39.668Z,23.16
2022-08-31T09:52:39.684Z,23.22
2022-08-31T09:53:39.670Z,23.20
2022-08-31T09:54:44.386Z,23.16
2022-08-31T09:55:39.673Z,23.13
2022-08-31T09:56:39.683Z,23.13
2022-08-31T09:57:39.666Z,23.17
2022-08-31T09:58:39.683Z,23.15
2022-08-31T09:59:39.671Z,23.25
2022-08-31T10:00:39.677Z,23.20
2022-08-31T10:01:39.815Z,23.27
2022-08-31T10:02:39.668Z,23.25
2022-08-31T10:03:39.659Z,23.25
2022-08-31T10:04:39.703Z,23.20
2022-08-31T10:05:39.663Z,23.23
2022-08-31T10:06:39.669Z,23.15
2022-08-31T10:07:39.675Z,23.19
2022-08-31T10:08:39.663Z,23.16
2022-08-31T10:09:39.660Z,23.23
2022-08-31T10:10:39.653Z,23.23
2022-08-31T10:11:39.674Z,23.20
2022-08-31T10:12:39.662Z,23.12
2022-08-31T10:13:39.679Z,23.22
2022-08-31T10:14:39.653Z,23.23
2022-08-31T10:15:39.779Z,23.31
2022-08-31T10:16:39.660Z,23.27
2022-08-31T10:17:39.653Z,23.19
2022-08-31T10:18:39.736Z,23.20
2022-08-31T10:19:39.657Z,23.20
2022-08-31T10:20:39.667Z,23.25
2022-08-31T10:21:39.666Z,23.28
2022-08-31T10:22:39.674Z,23.28
2022-08-31T10:23:39.660Z,23.23
2022-08-31T10:24:39.908Z,23.25
2022-08-31T10:25:39.671Z,23.33
2022-08-31T10:26:39.650Z,23.22
2022-08-31T10:27:39.668Z,23.22
2022-08-31T10:28:39.645Z,23.23
2022-08-31T10:29:39.685Z,23.25
2022-08-31T10:30:39.787Z,23.22
2022-08-31T10:31:42.890Z,23.33
2022-08-31T10:32:39.879Z,23.25
2022-08-31T10:33:39.658Z,23.25
2022-08-31T10:34:40.472Z,23.42
2022-08-31T10:35:39.692Z,23.40
2022-08-31T10:36:39.669Z,23.35
2022-08-31T10:37:39.676Z,23.36
2022-08-31T10:38:39.659Z,23.35
2022-08-31T10:39:39.647Z,23.35
2022-08-31T10:40:39.755Z,23.32
2022-08-31T10:42:33.546Z,23.38
2022-08-31T10:43:33.540Z,23.33
2022-08-31T10:44:33.796Z,23.38
2022-08-31T10:45:33.820Z,23.47
2022-08-31T10:46:33.659Z,23.42
2022-08-31T10:47:34.465Z,23.42
2022-08-31T10:48:33.547Z,23.43
2022-08-31T10:49:33.537Z,23.46
2022-08-31T10:50:33.543Z,23.47
2022-08-31T10:51:33.545Z,23.50
2022-08-31T10:52:33.547Z,23.40
2022-08-31T10:53:34.875Z,23.51
2022-08-31T10:54:33.543Z,23.48
2022-08-31T10:55:33.538Z,23.54
2022-08-31T10:56:33.544Z,23.57
2022-08-31T10:57:33.543Z,23.53
2022-08-31T10:58:33.538Z,23.57
2022-08-31T10:59:33.558Z,23.53
2022-08-31T11:00:33.541Z,23.58
2022-08-31T11:01:33.572Z,23.53
2022-08-31T11:02:33.534Z,23.55
2022-08-31T11:03:33.588Z,23.58
2022-08-31T11:04:33.643Z,23.47
2022-08-31T11:05:33.555Z,23.57
2022-08-31T11:06:33.532Z,23.54
2022-08-31T11:07:33.552Z,23.57
2022-08-31T11:08:33.538Z,23.51
2022-08-31T11:09:33.545Z,23.54
2022-08-31T11:10:33.532Z,23.54
2022-08-31T11:11:33.536Z,23.58
2022-08-31T11:12:33.533Z,23.57
2022-08-31T11:13:33.541Z,23.63
2022-08-31T11:14:33.543Z,23.58
2022-08-31T11:15:33.635Z,23.58
2022-08-31T11:16:33.550Z,23.58
2022-08-31T11:17:33.535Z,23.54
2022-08-31T11:18:33.542Z,23.61
2022-08-31T11:19:33.560Z,23.61
2022-08-31T11:20:33.535Z,23.68
2022-08-31T11:21:33.539Z,23.61
2022-08-31T11:22:33.539Z,23.60
2022-08-31T11:23:33.568Z,23.65
2022-08-31T11:24:37.179Z,23.63
2022-08-31T11:25:33.552Z,23.68
2022-08-31T11:26:33.540Z,23.63
2022-08-31T11:27:33.539Z,23.57
2022-08-31T11:28:33.536Z,23.60
2022-08-31T11:29:34.414Z,23.63
2022-08-31T11:30:33.529Z,23.65
2022-08-31T11:31:33.632Z,23.68
2022-08-31T11:32:33.534Z,23.68
2022-08-31T11:33:33.543Z,23.72
2022-08-31T11:34:33.527Z,23.63
2022-08-31T11:35:33.533Z,23.63
2022-08-31T11:36:33.542Z,23.70
2022-08-31T11:37:33.554Z,23.63
2022-08-31T11:38:33.537Z,23.65
2022-08-31T11:39:33.541Z,23.66
2022-08-31T11:40:33.612Z,23.68
2022-08-31T11:41:33.541Z,23.65
2022-08-31T11:42:33.544Z,23.63
2022-08-31T11:43:33.547Z,23.72
2022-08-31T11:44:34.301Z,23.63
2022-08-31T11:45:33.539Z,23.75
2022-08-31T11:46:33.576Z,23.73
2022-08-31T11:47:33.543Z,23.73
2022-08-31T11:48:33.539Z,23.70
2022-08-31T11:49:33.688Z,23.75
2022-08-31T11:50:33.558Z,23.69
2022-08-31T11:51:38.632Z,23.63
2022-08-31T11:52:33.531Z,23.72
2022-08-31T11:53:33.534Z,23.76
2022-08-31T11:54:33.535Z,23.63
2022-08-31T11:55:33.541Z,23.79
2022-08-31T11:56:33.539Z,23.70
2022-08-31T11:57:37.584Z,23.78
2022-08-31T11:58:33.541Z,23.83
2022-08-31T11:59:34.211Z,23.72
2022-08-31T12:00:33.531Z,23.78
2022-08-31T12:01:33.535Z,23.75
2022-08-31T12:02:33.638Z,23.80
2022-08-31T12:03:33.545Z,23.84
2022-08-31T12:04:33.540Z,23.75
2022-08-31T12:05:33.602Z,23.73
2022-08-31T12:06:33.529Z,23.79
2022-08-31T12:07:33.535Z,23.75
2022-08-31T12:08:33.536Z,23.83
2022-08-31T12:09:33.538Z,23.75
2022-08-31T12:10:33.546Z,23.80
2022-08-31T12:11:33.543Z,23.78
2022-08-31T12:12:33.539Z,23.78
2022-08-31T12:13:33.539Z,23.73
2022-08-31T12:14:33.536Z,23.79
2022-08-31T12:15:33.614Z,23.72
2022-08-31T12:16:33.542Z,23.78
2022-08-31T12:17:33.555Z,23.70
2022-08-31T12:18:34.701Z,23.70
2022-08-31T12:19:33.551Z,23.73
2022-08-31T12:20:33.542Z,23.83
2022-08-31T12:21:33.538Z,23.79
2022-08-31T12:22:33.550Z,23.83
2022-08-31T12:23:33.779Z,23.73
2022-08-31T12:24:33.546Z,23.83
2022-08-31T12:25:33.550Z,23.75
2022-08-31T12:26:33.542Z,23.72
2022-08-31T12:27:33.546Z,23.72
2022-08-31T12:28:33.545Z,23.83
2022-08-31T12:29:33.541Z,23.88
2022-08-31T12:30:33.554Z,23.75
2022-08-31T12:31:33.598Z,23.79
2022-08-31T12:32:33.549Z,23.76
2022-08-31T12:33:33.543Z,23.76
2022-08-31T12:34:33.543Z,23.68
2022-08-31T12:35:33.558Z,23.70
2022-08-31T12:36:33.552Z,23.69
2022-08-31T12:37:33.546Z,23.73
2022-08-31T12:38:33.553Z,23.75
2022-08-31T12:39:33.551Z,23.83
2022-08-31T12:40:33.635Z,23.79
2022-08-31T12:41:33.562Z,23.78
2022-08-31T12:42:33.545Z,23.76
2022-08-31T12:43:33.554Z,23.76
2022-08-31T12:44:33.553Z,23.79
2022-08-31T12:45:33.546Z,23.83
2022-08-31T12:46:33.668Z,23.87
2022-08-31T12:47:33.573Z,23.83
2022-08-31T12:48:33.552Z,23.84
2022-08-31T12:49:33.557Z,23.79
2022-08-31T12:50:33.586Z,23.93
2022-08-31T12:51:33.556Z,23.85
2022-08-31T12:53:35.688Z,23.78
2022-08-31T12:54:35.482Z,23.75
2022-08-31T12:55:35.472Z,23.78
2022-08-31T12:56:35.470Z,23.76
2022-08-31T12:57:35.460Z,23.87